createdAt,value
2022-09-22T00:00:02.157Z,21.11
2022-09-22T00:00:33.729Z,21.12
2022-09-22T00:01:05.213Z,21.10
2022-09-22T00:01:36.794Z,21.09
2022-09-22T00:02:08.293Z,21.09
2022-09-22T00:02:39.705Z,21.09
2022-09-22T00:03:11.086Z,21.09
2022-09-22T00:03:42.486Z,21.09
2022-09-22T00:04:13.871Z,21.09
2022-09-22T00:04:45.308Z,21.07
2022-09-22T00:05:16.699Z,21.08
2022-09-22T00:05:48.097Z,21.07
2022-09-22T00:06:19.491Z,21.07
2022-09-22T00:06:50.894Z,21.07
2022-09-22T00:07:22.280Z,21.06
2022-09-22T00:07:53.688Z,21.06
2022-09-22T00:08:25.075Z,21.06
2022-09-22T00:08:56.514Z,21.05
2022-09-22T00:09:27.912Z,21.05
2022-09-22T00:09:59.587Z,21.05
2022-09-22T00:10:30.982Z,21.04
2022-09-22T00:11:02.386Z,21.04
2022-09-22T00:11:33.778Z,21.03
2022-09-22T00:12:05.184Z,21.04
2022-09-22T00:12:36.597Z,21.03
2022-09-22T00:13:07.985Z,21.03
2022-09-22T00:13:39.368Z,21.03
2022-09-22T00:14:10.757Z,21.03
2022-09-22T00:14:42.176Z,21.03
2022-09-22T00:15:13.651Z,21.03
2022-09-22T00:15:45.036Z,21.02
2022-09-22T00:16:16.489Z,21.01
2022-09-22T00:16:47.900Z,21.01
2022-09-22T00:17:19.540Z,21.00
2022-09-22T00:17:50.934Z,21.00
2022-09-22T00:18:22.329Z,21.00
2022-09-22T00:18:53.725Z,20.99
2022-09-22T00:19:25.127Z,20.99
2022-09-22T00:19:56.508Z,20.99
2022-09-22T00:20:28.013Z,20.99
2022-09-22T00:20:59.437Z,20.99
2022-09-22T00:21:30.827Z,20.98
2022-09-22T00:22:02.226Z,20.97
2022-09-22T00:22:33.642Z,20.97
2022-09-22T00:23:05.034Z,20.97
2022-09-22T00:23:36.433Z,20.98
2022-09-22T00:24:07.918Z,20.97
2022-09-22T00:24:39.442Z,20.96
2022-09-22T00:25:10.857Z,20.97
2022-09-22T00:25:42.508Z,20.97
2022-09-22T00:26:13.909Z,20.96
2022-09-22T00:26:45.313Z,20.96
2022-09-22T00:27:16.721Z,20.94
2022-09-22T00:27:48.129Z,20.95
2022-09-22T00:28:19.516Z,20.94
2022-09-22T00:28:50.905Z,20.95
2022-09-22T00:29:22.288Z,20.94
2022-09-22T00:29:53.682Z,20.94
2022-09-22T00:30:25.064Z,20.95
2022-09-22T00:30:56.549Z,20.94
2022-09-22T00:31:28.005Z,20.93
2022-09-22T00:32:02.440Z,20.94
2022-09-22T00:32:36.376Z,20.93
2022-09-22T00:33:07.759Z,20.93
2022-09-22T00:33:39.150Z,20.94
2022-09-22T00:34:10.552Z,20.94
2022-09-22T00:34:41.943Z,20.91
2022-09-22T00:35:13.350Z,20.93
2022-09-22T00:35:44.735Z,20.93
2022-09-22T00:36:16.234Z,20.91
2022-09-22T00:36:47.633Z,20.92
2022-09-22T00:37:19.219Z,20.92
2022-09-22T00:37:50.606Z,20.92
2022-09-22T00:38:21.993Z,20.92
2022-09-22T00:38:53.384Z,20.92
2022-09-22T00:39:24.779Z,20.92
2022-09-22T00:39:56.173Z,20.91
2022-09-22T00:40:27.632Z,20.92
2022-09-22T00:40:59.065Z,20.91
2022-09-22T00:41:30.497Z,20.91
2022-09-22T00:42:01.889Z,20.91
2022-09-22T00:42:33.284Z,20.91
2022-09-22T00:43:04.684Z,20.90
2022-09-22T00:43:36.081Z,20.89
2022-09-22T00:44:07.558Z,20.90
2022-09-22T00:44:39.032Z,20.89
2022-09-22T00:45:10.416Z,20.89
2022-09-22T00:45:41.801Z,20.90
2022-09-22T00:46:13.258Z,20.88
2022-09-22T00:46:44.809Z,20.89
2022-09-22T00:47:16.273Z,20.89
2022-09-22T00:47:47.661Z,20.88
2022-09-22T00:48:19.068Z,20.88
2022-09-22T00:48:50.458Z,20.87
2022-09-22T00:49:21.847Z,20.88
2022-09-22T00:49:53.242Z,20.88
2022-09-22T00:50:24.641Z,20.87
2022-09-22T00:50:56.035Z,20.87
2022-09-22T00:51:27.445Z,20.87
2022-09-22T00:51:58.925Z,20.87
2022-09-22T00:52:30.315Z,20.87
2022-09-22T00:53:01.709Z,20.86
2022-09-22T00:53:33.106Z,20.86
2022-09-22T00:54:04.502Z,20.86
2022-09-22T00:54:35.894Z,20.85
2022-09-22T00:55:07.288Z,20.85
2022-09-22T00:55:38.681Z,20.84
2022-09-22T00:56:10.085Z,20.85
2022-09-22T00:56:41.469Z,20.83
2022-09-22T00:57:12.988Z,20.83
2022-09-22T00:57:44.372Z,20.83
2022-09-22T00:58:15.758Z,20.83
2022-09-22T00:58:47.156Z,20.83
2022-09-22T00:59:18.548Z,20.82
2022-09-22T00:59:49.932Z,20.82
2022-09-22T01:00:21.337Z,20.82
2022-09-22T01:00:52.786Z,20.82
2022-09-22T01:01:24.314Z,20.81
2022-09-22T01:01:55.858Z,20.81
2022-09-22T01:02:27.451Z,20.80
2022-09-22T01:02:58.837Z,20.80
2022-09-22T01:03:30.363Z,20.80
2022-09-22T01:04:01.766Z,20.80
2022-09-22T01:04:33.161Z,20.79
2022-09-22T01:05:04.572Z,20.79
2022-09-22T01:05:35.969Z,20.78
2022-09-22T01:06:07.364Z,20.79
2022-09-22T01:06:38.746Z,20.78
2022-09-22T01:07:10.136Z,20.78
2022-09-22T01:07:41.623Z,20.78
2022-09-22T01:08:13.030Z,20.77
2022-09-22T01:08:44.425Z,20.78
2022-09-22T01:09:15.816Z,20.77
2022-09-22T01:09:47.218Z,20.77
2022-09-22T01:10:18.603Z,20.77
2022-09-22T01:10:49.986Z,20.77
2022-09-22T01:11:21.384Z,20.76
2022-09-22T01:11:52.806Z,20.76
2022-09-22T01:12:24.195Z,20.74
2022-09-22T01:12:55.698Z,20.76
2022-09-22T01:13:27.119Z,20.74
2022-09-22T01:13:58.584Z,20.74
2022-09-22T01:14:29.988Z,20.74
2022-09-22T01:15:01.416Z,20.74
2022-09-22T01:15:32.804Z,20.73
2022-09-22T01:16:04.268Z,20.72
2022-09-22T01:16:35.704Z,20.74
2022-09-22T01:17:07.087Z,20.73
2022-09-22T01:17:38.622Z,20.73
2022-09-22T01:18:10.013Z,20.72
2022-09-22T01:18:41.404Z,20.72
2022-09-22T01:19:12.797Z,20.72
2022-09-22T01:19:44.206Z,20.72
2022-09-22T01:20:15.609Z,20.72
2022-09-22T01:20:47.007Z,20.72
2022-09-22T01:21:18.406Z,20.71
2022-09-22T01:21:49.812Z,20.70
2022-09-22T01:22:21.196Z,20.71
2022-09-22T01:22:52.665Z,20.70
2022-09-22T01:23:24.057Z,20.71
2022-09-22T01:23:55.475Z,20.69
2022-09-22T01:24:26.874Z,20.69
2022-09-22T01:24:58.269Z,20.70
2022-09-22T01:25:29.657Z,20.69
2022-09-22T01:26:01.049Z,20.70
2022-09-22T01:26:32.445Z,20.69
2022-09-22T01:27:03.837Z,20.68
2022-09-22T01:27:35.230Z,20.68
2022-09-22T01:28:06.723Z,20.69
2022-09-22T01:28:38.132Z,20.67
2022-09-22T01:29:09.527Z,20.67
2022-09-22T01:29:40.912Z,20.68
2022-09-22T01:30:12.306Z,20.67
2022-09-22T01:30:43.687Z,20.68
2022-09-22T01:31:15.126Z,20.66
2022-09-22T01:31:46.641Z,20.66
2022-09-22T01:32:18.079Z,20.65
2022-09-22T01:32:49.599Z,20.66
2022-09-22T01:33:21.092Z,20.65
2022-09-22T01:33:52.504Z,20.65
2022-09-22T01:34:23.893Z,20.64
2022-09-22T01:34:55.280Z,20.64
2022-09-22T01:35:26.668Z,20.64
2022-09-22T01:35:58.068Z,20.63
2022-09-22T01:36:29.458Z,20.64
2022-09-22T01:37:00.848Z,20.63
2022-09-22T01:37:32.233Z,20.63
2022-09-22T01:38:03.666Z,20.63
2022-09-22T01:38:35.086Z,20.63
2022-09-22T01:39:06.562Z,20.61
2022-09-22T01:39:38.009Z,20.62
2022-09-22T01:40:09.440Z,20.62
2022-09-22T01:40:40.935Z,20.62
2022-09-22T01:41:12.344Z,20.62
2022-09-22T01:41:43.732Z,20.61
2022-09-22T01:42:15.136Z,20.61
2022-09-22T01:42:46.531Z,20.60
2022-09-22T01:43:18.098Z,20.60
2022-09-22T01:43:49.489Z,20.60
2022-09-22T01:44:20.877Z,20.59
2022-09-22T01:44:52.267Z,20.60
2022-09-22T01:45:23.678Z,20.59
2022-09-22T01:45:55.083Z,20.58
2022-09-22T01:46:26.538Z,20.58
2022-09-22T01:46:58.062Z,20.58
2022-09-22T01:47:29.455Z,20.58
2022-09-22T01:48:00.835Z,20.57
2022-09-22T01:48:32.363Z,20.57
2022-09-22T01:49:03.759Z,20.57
2022-09-22T01:49:35.157Z,20.57
2022-09-22T01:50:06.571Z,20.56
2022-09-22T01:50:37.956Z,20.56
2022-09-22T01:51:09.344Z,20.56
2022-09-22T01:51:40.746Z,20.56
2022-09-22T01:52:12.219Z,20.56
2022-09-22T01:52:43.601Z,20.55
2022-09-22T01:53:15.027Z,20.55
2022-09-22T01:53:46.414Z,20.54
2022-09-22T01:54:17.820Z,20.55
2022-09-22T01:54:49.201Z,20.55
2022-09-22T01:55:20.644Z,20.54
2022-09-22T01:55:52.052Z,20.55
2022-09-22T01:56:23.444Z,20.53
2022-09-22T01:56:54.842Z,20.54
2022-09-22T01:57:26.364Z,20.54
2022-09-22T01:57:57.753Z,20.54
2022-09-22T01:58:29.139Z,20.53
2022-09-22T01:59:00.534Z,20.54
2022-09-22T01:59:31.924Z,20.54
2022-09-22T02:00:03.315Z,20.53
2022-09-22T02:00:34.719Z,20.52
2022-09-22T02:01:07.284Z,20.53
2022-09-22T02:01:41.202Z,20.52
2022-09-22T02:02:12.758Z,20.51
2022-09-22T02:02:44.366Z,20.51
2022-09-22T02:03:15.849Z,20.51
2022-09-22T02:03:47.261Z,20.51
2022-09-22T02:04:18.649Z,20.49
2022-09-22T02:04:50.032Z,20.50
2022-09-22T02:05:21.440Z,20.49
2022-09-22T02:05:52.840Z,20.50
2022-09-22T02:06:24.224Z,20.49
2022-09-22T02:06:55.612Z,20.50
2022-09-22T02:07:27.010Z,20.49
2022-09-22T02:07:58.468Z,20.49
2022-09-22T02:08:29.865Z,20.48
2022-09-22T02:09:01.260Z,20.48
2022-09-22T02:09:32.653Z,20.48
2022-09-22T02:10:04.040Z,20.47
2022-09-22T02:10:35.432Z,20.48
2022-09-22T02:11:07.053Z,20.47
2022-09-22T02:11:38.446Z,20.47
2022-09-22T02:12:09.833Z,20.48
2022-09-22T02:12:41.228Z,20.46
2022-09-22T02:13:12.735Z,20.47
2022-09-22T02:13:44.130Z,20.46
2022-09-22T02:14:15.540Z,20.47
2022-09-22T02:14:46.935Z,20.47
2022-09-22T02:15:18.344Z,20.47
2022-09-22T02:15:49.797Z,20.46
2022-09-22T02:16:21.292Z,20.46
2022-09-22T02:16:52.688Z,20.45
2022-09-22T02:17:24.076Z,20.46
2022-09-22T02:17:55.460Z,20.45
2022-09-22T02:18:26.918Z,20.45
2022-09-22T02:19:06.260Z,20.46
2022-09-22T02:19:43.640Z,20.45
2022-09-22T02:20:15.033Z,20.44
2022-09-22T02:20:46.424Z,20.45
2022-09-22T02:21:17.817Z,20.44
2022-09-22T02:21:49.203Z,20.44
2022-09-22T02:22:20.583Z,20.44
2022-09-22T02:22:51.978Z,20.45
2022-09-22T02:23:23.443Z,20.44
2022-09-22T02:23:54.827Z,20.43
2022-09-22T02:24:26.212Z,20.43
2022-09-22T02:24:57.607Z,20.43
2022-09-22T02:25:29.009Z,20.43
2022-09-22T02:26:00.416Z,20.42
2022-09-22T02:26:31.800Z,20.43
2022-09-22T02:27:03.189Z,20.41
2022-09-22T02:27:34.603Z,20.41
2022-09-22T02:28:05.995Z,20.42
2022-09-22T02:28:37.513Z,20.42
2022-09-22T02:29:08.956Z,20.41
2022-09-22T02:29:40.390Z,20.41
2022-09-22T02:30:11.787Z,20.40
2022-09-22T02:30:54.292Z,20.41
2022-09-22T02:31:34.581Z,20.40
2022-09-22T02:32:06.053Z,20.40
2022-09-22T02:32:37.487Z,20.39
2022-09-22T02:33:08.881Z,20.39
2022-09-22T02:33:40.423Z,20.39
2022-09-22T02:34:11.818Z,20.39
2022-09-22T02:34:43.208Z,20.39
2022-09-22T02:35:14.603Z,20.39
2022-09-22T02:35:46.012Z,20.40
2022-09-22T02:36:17.397Z,20.39
2022-09-22T02:36:48.780Z,20.39
2022-09-22T02:37:20.169Z,20.39
2022-09-22T02:37:51.553Z,20.39
2022-09-22T02:38:22.943Z,20.37
2022-09-22T02:38:54.374Z,20.37
2022-09-22T02:39:25.784Z,20.37
2022-09-22T02:39:57.176Z,20.37
2022-09-22T02:40:28.673Z,20.38
2022-09-22T02:41:00.102Z,20.37
2022-09-22T02:41:31.495Z,20.37
2022-09-22T02:42:02.895Z,20.38
2022-09-22T02:42:34.299Z,20.36
2022-09-22T02:43:05.679Z,20.37
2022-09-22T02:43:37.079Z,20.36
2022-09-22T02:44:08.613Z,20.36
2022-09-22T02:44:40.043Z,20.36
2022-09-22T02:45:11.438Z,20.36
2022-09-22T02:45:42.839Z,20.35
2022-09-22T02:46:14.244Z,20.35
2022-09-22T02:46:45.714Z,20.34
2022-09-22T02:47:17.101Z,20.35
2022-09-22T02:47:48.517Z,20.35
2022-09-22T02:48:19.930Z,20.34
2022-09-22T02:48:51.323Z,20.33
2022-09-22T02:49:22.804Z,20.34
2022-09-22T02:49:54.189Z,20.33
2022-09-22T02:50:25.580Z,20.34
2022-09-22T02:50:56.991Z,20.33
2022-09-22T02:51:28.378Z,20.32
2022-09-22T02:51:59.772Z,20.33
2022-09-22T02:52:31.185Z,20.33
2022-09-22T02:53:02.568Z,20.32
2022-09-22T02:53:33.953Z,20.32
2022-09-22T02:54:05.415Z,20.32
2022-09-22T02:54:36.971Z,20.32
2022-09-22T02:55:08.381Z,20.31
2022-09-22T02:55:39.786Z,20.32
2022-09-22T02:56:11.186Z,20.32
2022-09-22T02:56:42.574Z,20.31
2022-09-22T02:57:13.965Z,20.31
2022-09-22T02:57:45.357Z,20.31
2022-09-22T02:58:16.743Z,20.31
2022-09-22T02:58:48.152Z,20.31
2022-09-22T02:59:19.540Z,20.30
2022-09-22T02:59:51.009Z,20.30
2022-09-22T03:00:22.420Z,20.30
2022-09-22T03:00:53.828Z,20.30
2022-09-22T03:01:25.317Z,20.29
2022-09-22T03:01:56.797Z,20.29
2022-09-22T03:02:28.219Z,20.29
2022-09-22T03:02:59.624Z,20.29
2022-09-22T03:03:31.016Z,20.29
2022-09-22T03:04:02.416Z,20.28
2022-09-22T03:04:33.861Z,20.28
2022-09-22T03:05:05.457Z,20.28
2022-09-22T03:05:36.868Z,20.28
2022-09-22T03:06:08.268Z,20.28
2022-09-22T03:06:39.818Z,20.28
2022-09-22T03:07:11.207Z,20.27
2022-09-22T03:07:42.616Z,20.27
2022-09-22T03:08:14.014Z,20.27
2022-09-22T03:08:45.403Z,20.26
2022-09-22T03:09:16.794Z,20.27
2022-09-22T03:09:48.184Z,20.26
2022-09-22T03:10:19.646Z,20.26
2022-09-22T03:10:51.036Z,20.27
2022-09-22T03:11:22.427Z,20.27
2022-09-22T03:11:53.828Z,20.26
2022-09-22T03:12:25.218Z,20.26
2022-09-22T03:13:15.365Z,20.25
2022-09-22T03:13:47.624Z,20.25
2022-09-22T03:14:19.036Z,20.25
2022-09-22T03:14:50.422Z,20.25
2022-09-22T03:15:26.976Z,20.24
2022-09-22T03:15:58.647Z,20.25
2022-09-22T03:16:30.099Z,20.25
2022-09-22T03:17:01.490Z,20.24
2022-09-22T03:17:32.884Z,20.23
2022-09-22T03:18:04.266Z,20.23
2022-09-22T03:18:35.654Z,20.25
2022-09-22T03:19:07.049Z,20.25
2022-09-22T03:19:38.440Z,20.23
2022-09-22T03:20:09.832Z,20.23
2022-09-22T03:20:41.328Z,20.23
2022-09-22T03:21:12.804Z,20.23
2022-09-22T03:21:44.196Z,20.23
2022-09-22T03:22:15.591Z,20.23
2022-09-22T03:22:46.995Z,20.22
2022-09-22T03:23:18.385Z,20.23
2022-09-22T03:23:49.781Z,20.22
2022-09-22T03:24:21.177Z,20.23
2022-09-22T03:24:52.595Z,20.22
2022-09-22T03:25:23.987Z,20.22
2022-09-22T03:25:55.487Z,20.22
2022-09-22T03:26:26.876Z,20.22
2022-09-22T03:26:58.285Z,20.22
2022-09-22T03:27:29.677Z,20.21
2022-09-22T03:28:01.059Z,20.21
2022-09-22T03:28:32.548Z,20.21
2022-09-22T03:29:03.941Z,20.20
2022-09-22T03:29:35.361Z,20.20
2022-09-22T03:30:06.744Z,20.20
2022-09-22T03:30:38.159Z,20.20
2022-09-22T03:31:09.639Z,20.19
2022-09-22T03:31:41.055Z,20.20
2022-09-22T03:32:12.447Z,20.19
2022-09-22T03:32:43.841Z,20.20
2022-09-22T03:33:15.248Z,20.18
2022-09-22T03:33:51.911Z,20.18
2022-09-22T03:34:24.055Z,20.18
2022-09-22T03:34:55.467Z,20.18
2022-09-22T03:35:26.853Z,20.19
2022-09-22T03:35:58.236Z,20.17
2022-09-22T03:36:29.620Z,20.18
2022-09-22T03:37:01.006Z,20.18
2022-09-22T03:37:32.397Z,20.18
2022-09-22T03:38:03.810Z,20.17
2022-09-22T03:38:35.217Z,20.18
2022-09-22T03:39:06.864Z,20.17
2022-09-22T03:39:38.412Z,20.16
2022-09-22T03:40:09.912Z,20.16
2022-09-22T03:40:41.427Z,20.17
2022-09-22T03:41:12.892Z,20.15
2022-09-22T03:41:44.309Z,20.17
2022-09-22T03:42:15.704Z,20.16
2022-09-22T03:42:47.094Z,20.16
2022-09-22T03:43:18.488Z,20.15
2022-09-22T03:43:49.884Z,20.15
2022-09-22T03:44:21.410Z,20.14
2022-09-22T03:44:52.795Z,20.14
2022-09-22T03:45:24.188Z,20.14
2022-09-22T03:45:55.627Z,20.14
2022-09-22T03:46:27.091Z,20.14
2022-09-22T03:46:58.503Z,20.14
2022-09-22T03:47:29.888Z,20.13
2022-09-22T03:48:01.277Z,20.13
2022-09-22T03:48:32.662Z,20.13
2022-09-22T03:49:04.044Z,20.13
2022-09-22T03:49:35.559Z,20.13
2022-09-22T03:50:06.976Z,20.13
2022-09-22T03:50:38.373Z,20.12
2022-09-22T03:51:09.772Z,20.13
2022-09-22T03:51:41.159Z,20.12
2022-09-22T03:52:12.550Z,20.12
2022-09-22T03:52:43.945Z,20.12
2022-09-22T03:53:15.340Z,20.11
2022-09-22T03:53:46.724Z,20.10
2022-09-22T03:54:18.125Z,20.11
2022-09-22T03:54:49.629Z,20.12
2022-09-22T03:55:21.035Z,20.11
2022-09-22T03:55:52.424Z,20.10
2022-09-22T03:56:23.823Z,20.10
2022-09-22T03:56:55.221Z,20.08
2022-09-22T03:57:26.633Z,20.10
2022-09-22T03:57:58.042Z,20.08
2022-09-22T03:58:29.453Z,20.10
2022-09-22T03:59:00.843Z,20.10
2022-09-22T03:59:32.235Z,20.08
2022-09-22T04:00:03.667Z,20.08
2022-09-22T04:00:35.055Z,20.10
2022-09-22T04:01:06.512Z,20.07
2022-09-22T04:01:37.966Z,20.07
2022-09-22T04:02:09.419Z,20.07
2022-09-22T04:02:40.907Z,20.08
2022-09-22T04:03:12.320Z,20.07
2022-09-22T04:03:43.724Z,20.07
2022-09-22T04:04:15.132Z,20.07
2022-09-22T04:04:46.520Z,20.07
2022-09-22T04:05:18.042Z,20.07
2022-09-22T04:05:49.481Z,20.07
2022-09-22T04:06:20.873Z,20.08
2022-09-22T04:06:52.275Z,20.07
2022-09-22T04:07:23.661Z,20.06
2022-09-22T04:07:55.049Z,20.06
2022-09-22T04:08:26.474Z,20.07
2022-09-22T04:08:57.878Z,20.06
2022-09-22T04:09:29.294Z,20.06
2022-09-22T04:10:00.687Z,20.06
2022-09-22T04:10:32.126Z,20.06
2022-09-22T04:11:03.538Z,20.06
2022-09-22T04:11:34.950Z,20.07
2022-09-22T04:12:06.349Z,20.06
2022-09-22T04:12:37.753Z,20.06
2022-09-22T04:13:09.145Z,20.05
2022-09-22T04:13:45.979Z,20.06
2022-09-22T04:14:17.725Z,20.05
2022-09-22T04:14:49.128Z,20.05
2022-09-22T04:15:20.522Z,20.04
2022-09-22T04:15:52.015Z,20.04
2022-09-22T04:16:23.422Z,20.04
2022-09-22T04:16:54.945Z,20.04
2022-09-22T04:17:26.405Z,20.04
2022-09-22T04:17:57.800Z,20.04
2022-09-22T04:18:29.202Z,20.04
2022-09-22T04:19:01.110Z,20.04
2022-09-22T04:19:32.507Z,20.04
2022-09-22T04:20:03.913Z,20.04
2022-09-22T04:20:35.307Z,20.03
2022-09-22T04:21:06.776Z,20.03
2022-09-22T04:21:38.165Z,20.02
2022-09-22T04:22:09.572Z,20.03
2022-09-22T04:22:40.986Z,20.03
2022-09-22T04:23:12.368Z,20.02
2022-09-22T04:23:43.766Z,20.03
2022-09-22T04:24:15.164Z,20.02
2022-09-22T04:24:46.559Z,20.02
2022-09-22T04:25:17.952Z,20.02
2022-09-22T04:25:49.348Z,20.02
2022-09-22T04:26:20.852Z,20.02
2022-09-22T04:27:15.575Z,20.02
2022-09-22T04:27:43.612Z,20.01
2022-09-22T04:28:15.025Z,20.01
2022-09-22T04:28:46.419Z,20.01
2022-09-22T04:29:17.802Z,20.02
2022-09-22T04:29:49.219Z,20.02
2022-09-22T04:30:20.618Z,20.01
2022-09-22T04:30:52.102Z,20.01
2022-09-22T04:31:23.628Z,20.01
2022-09-22T04:31:55.139Z,20.02
2022-09-22T04:32:26.532Z,20.01
2022-09-22T04:32:57.936Z,20.01
2022-09-22T04:33:29.340Z,20.00
2022-09-22T04:34:04.168Z,20.01
2022-09-22T04:34:38.287Z,20.01
2022-09-22T04:35:09.682Z,20.01
2022-09-22T04:35:41.073Z,20.01
2022-09-22T04:36:12.467Z,20.00
2022-09-22T04:36:43.881Z,20.01
2022-09-22T04:37:15.267Z,20.00
2022-09-22T04:37:46.660Z,20.00
2022-09-22T04:38:18.054Z,20.00
2022-09-22T04:38:49.459Z,20.00
2022-09-22T04:39:23.791Z,20.00
2022-09-22T04:39:55.482Z,20.00
2022-09-22T04:40:26.929Z,20.00
2022-09-22T04:40:58.355Z,20.00
2022-09-22T04:41:29.769Z,20.00
2022-09-22T04:42:01.276Z,20.00
2022-09-22T04:42:32.670Z,20.00
2022-09-22T04:43:04.071Z,20.00
2022-09-22T04:43:35.458Z,20.00
2022-09-22T04:44:06.848Z,19.99
2022-09-22T04:44:38.236Z,20.00
2022-09-22T04:45:09.625Z,19.99
2022-09-22T04:45:41.065Z,19.98
2022-09-22T04:46:12.695Z,19.99
2022-09-22T04:46:44.165Z,19.99
2022-09-22T04:47:15.635Z,19.98
2022-09-22T04:47:47.024Z,19.98
2022-09-22T04:48:18.427Z,19.98
2022-09-22T04:48:49.814Z,19.98
2022-09-22T04:49:21.224Z,19.99
2022-09-22T04:49:52.617Z,19.98
2022-09-22T04:50:24.023Z,19.99
2022-09-22T04:50:55.414Z,19.98
2022-09-22T04:51:26.805Z,19.96
2022-09-22T04:51:58.230Z,19.98
2022-09-22T04:52:29.751Z,19.97
2022-09-22T04:53:01.145Z,19.98
2022-09-22T04:53:32.532Z,19.97
2022-09-22T04:54:03.967Z,19.98
2022-09-22T04:54:35.353Z,19.98
2022-09-22T04:55:06.759Z,19.97
2022-09-22T04:55:38.147Z,19.97
2022-09-22T04:56:09.537Z,19.96
2022-09-22T04:56:40.921Z,19.96
2022-09-22T04:57:13.691Z,19.96
2022-09-22T04:57:46.510Z,19.96
2022-09-22T04:58:17.907Z,19.96
2022-09-22T04:58:49.307Z,19.97
2022-09-22T04:59:20.698Z,19.96
2022-09-22T04:59:52.105Z,19.95
2022-09-22T05:00:23.492Z,19.94
2022-09-22T05:00:54.932Z,19.96
2022-09-22T05:01:26.431Z,19.94
2022-09-22T05:01:57.840Z,19.94
2022-09-22T05:02:29.368Z,19.94
2022-09-22T05:03:00.780Z,19.93
2022-09-22T05:03:32.353Z,19.94
2022-09-22T05:04:03.807Z,19.93
2022-09-22T05:04:35.187Z,19.94
2022-09-22T05:05:06.586Z,19.94
2022-09-22T05:05:37.981Z,19.92
2022-09-22T05:06:09.367Z,19.94
2022-09-22T05:06:40.755Z,19.93
2022-09-22T05:07:12.156Z,19.93
2022-09-22T05:07:43.620Z,19.93
2022-09-22T05:08:15.059Z,19.93
2022-09-22T05:08:46.449Z,19.93
2022-09-22T05:09:17.861Z,19.92
2022-09-22T05:09:49.249Z,19.92
2022-09-22T05:10:20.661Z,19.92
2022-09-22T05:10:52.048Z,19.92
2022-09-22T05:11:23.436Z,19.91
2022-09-22T05:11:54.820Z,19.92
2022-09-22T05:12:26.213Z,19.93
2022-09-22T05:12:57.647Z,19.92
2022-09-22T05:13:29.031Z,19.92
2022-09-22T05:14:00.421Z,19.92
2022-09-22T05:14:31.823Z,19.92
2022-09-22T05:15:03.210Z,19.92
2022-09-22T05:15:34.647Z,19.92
2022-09-22T05:16:06.171Z,19.92
2022-09-22T05:16:37.595Z,19.91
2022-09-22T05:17:09.007Z,19.91
2022-09-22T05:17:40.416Z,19.91
2022-09-22T05:18:11.950Z,19.91
2022-09-22T05:18:43.333Z,19.91
2022-09-22T05:19:14.723Z,19.91
2022-09-22T05:19:46.108Z,19.91
2022-09-22T05:20:17.501Z,19.91
2022-09-22T05:20:48.888Z,19.90
2022-09-22T05:21:20.277Z,19.91
2022-09-22T05:21:51.668Z,19.91
2022-09-22T05:22:23.059Z,19.91
2022-09-22T05:22:54.445Z,19.91
2022-09-22T05:23:25.881Z,19.92
2022-09-22T05:23:57.353Z,19.90
2022-09-22T05:24:28.781Z,19.91
2022-09-22T05:25:00.188Z,19.91
2022-09-22T05:25:31.585Z,19.91
2022-09-22T05:26:02.991Z,19.91
2022-09-22T05:26:34.381Z,19.91
2022-09-22T05:27:05.789Z,19.91
2022-09-22T05:27:37.172Z,19.90
2022-09-22T05:28:08.559Z,19.91
2022-09-22T05:28:40.065Z,19.91
2022-09-22T05:29:11.464Z,19.91
2022-09-22T05:29:42.856Z,19.90
2022-09-22T05:30:14.251Z,19.90
2022-09-22T05:30:45.656Z,19.91
2022-09-22T05:31:17.105Z,19.90
2022-09-22T05:31:48.614Z,19.90
2022-09-22T05:32:20.035Z,19.91
2022-09-22T05:32:51.426Z,19.90
2022-09-22T05:33:22.821Z,19.90
2022-09-22T05:33:54.321Z,19.89
2022-09-22T05:34:25.714Z,19.90
2022-09-22T05:34:57.109Z,19.90
2022-09-22T05:35:31.777Z,19.90
2022-09-22T05:36:05.804Z,19.90
2022-09-22T05:36:37.187Z,19.90
2022-09-22T05:37:08.576Z,19.90
2022-09-22T05:37:39.964Z,19.90
2022-09-22T05:38:11.357Z,19.90
2022-09-22T05:38:42.758Z,19.90
2022-09-22T05:39:14.186Z,19.90
2022-09-22T05:39:45.572Z,19.91
2022-09-22T05:40:17.009Z,19.90
2022-09-22T05:40:48.519Z,19.89
2022-09-22T05:41:24.977Z,19.90
2022-09-22T05:42:02.435Z,19.89
2022-09-22T05:42:33.924Z,19.90
2022-09-22T05:43:05.610Z,19.90
2022-09-22T05:43:37.085Z,19.89
2022-09-22T05:44:09.349Z,19.90
2022-09-22T05:44:41.036Z,19.89
2022-09-22T05:45:12.504Z,19.88
2022-09-22T05:45:43.968Z,19.89
2022-09-22T05:46:15.536Z,19.89
2022-09-22T05:46:47.016Z,19.89
2022-09-22T05:47:18.428Z,19.89
2022-09-22T05:47:49.835Z,19.89
2022-09-22T05:48:21.229Z,19.90
2022-09-22T05:48:52.673Z,19.89
2022-09-22T05:49:24.065Z,19.89
2022-09-22T05:49:55.496Z,19.89
2022-09-22T05:50:26.889Z,19.89
2022-09-22T05:50:58.282Z,19.90
2022-09-22T05:51:29.683Z,19.88
2022-09-22T05:52:01.072Z,19.89
2022-09-22T05:52:32.503Z,19.90
2022-09-22T05:53:03.892Z,19.89
2022-09-22T05:53:35.290Z,19.89
2022-09-22T05:54:06.791Z,19.89
2022-09-22T05:54:38.230Z,19.88
2022-09-22T05:55:09.692Z,19.89
2022-09-22T05:55:41.086Z,19.89
2022-09-22T05:56:12.478Z,19.89
2022-09-22T05:56:43.892Z,19.89
2022-09-22T05:57:15.272Z,19.89
2022-09-22T05:57:46.681Z,19.90
2022-09-22T05:58:18.082Z,19.89
2022-09-22T05:58:49.470Z,19.89
2022-09-22T05:59:20.872Z,19.88
2022-09-22T05:59:52.295Z,19.89
2022-09-22T06:00:23.725Z,19.89
2022-09-22T06:00:55.161Z,19.89
2022-09-22T06:01:26.625Z,19.90
2022-09-22T06:01:59.767Z,19.89
2022-09-22T06:02:31.896Z,19.89
2022-09-22T06:03:03.470Z,19.89
2022-09-22T06:03:35.404Z,19.89
2022-09-22T06:04:06.806Z,19.89
2022-09-22T06:04:38.255Z,19.89
2022-09-22T06:05:09.647Z,19.90
2022-09-22T06:05:41.118Z,19.89
2022-09-22T06:06:12.575Z,19.90
2022-09-22T06:06:44.028Z,19.88
2022-09-22T06:07:15.522Z,19.89
2022-09-22T06:07:46.953Z,19.88
2022-09-22T06:08:18.378Z,19.89
2022-09-22T06:08:49.806Z,19.89
2022-09-22T06:09:21.218Z,19.89
2022-09-22T06:09:52.622Z,19.89
2022-09-22T06:10:24.696Z,19.89
2022-09-22T06:10:56.193Z,19.89
2022-09-22T06:11:27.633Z,19.89
2022-09-22T06:11:59.040Z,19.89
2022-09-22T06:12:30.436Z,19.90
2022-09-22T06:13:01.856Z,19.88
2022-09-22T06:13:33.286Z,19.90
2022-09-22T06:14:04.815Z,19.89
2022-09-22T06:14:36.214Z,19.90
2022-09-22T06:15:07.733Z,19.89
2022-09-22T06:15:39.128Z,19.89
2022-09-22T06:16:10.594Z,19.90
2022-09-22T06:16:42.104Z,19.90
2022-09-22T06:17:13.646Z,19.90
2022-09-22T06:17:45.038Z,19.90
2022-09-22T06:18:18.481Z,19.89
2022-09-22T06:18:52.172Z,19.90
2022-09-22T06:19:23.629Z,19.91
2022-09-22T06:19:55.166Z,19.90
2022-09-22T06:20:26.612Z,19.90
2022-09-22T06:20:58.141Z,19.89
2022-09-22T06:21:33.403Z,19.91
2022-09-22T06:22:04.866Z,19.91
2022-09-22T06:22:36.471Z,19.92
2022-09-22T06:23:07.908Z,19.93
2022-09-22T06:23:42.730Z,19.92
2022-09-22T06:24:14.475Z,19.94
2022-09-22T06:24:45.868Z,19.94
2022-09-22T06:25:17.351Z,19.93
2022-09-22T06:25:48.848Z,19.95
2022-09-22T06:26:20.394Z,19.95
2022-09-22T06:26:52.121Z,19.96
2022-09-22T06:27:23.800Z,19.96
2022-09-22T06:27:55.673Z,19.98
2022-09-22T06:28:28.120Z,19.98
2022-09-22T06:28:59.539Z,19.99
2022-09-22T06:29:31.103Z,19.99
2022-09-22T06:30:02.575Z,20.00
2022-09-22T06:30:34.005Z,20.00
2022-09-22T06:31:05.392Z,20.00
2022-09-22T06:31:36.928Z,20.02
2022-09-22T06:32:08.471Z,20.02
2022-09-22T06:32:40.018Z,20.03
2022-09-22T06:33:11.632Z,20.04
2022-09-22T06:33:44.167Z,20.05
2022-09-22T06:34:17.586Z,20.05
2022-09-22T06:34:50.001Z,20.06
2022-09-22T06:35:21.417Z,20.08
2022-09-22T06:35:52.881Z,20.08
2022-09-22T06:36:24.341Z,20.09
2022-09-22T06:36:55.888Z,20.10
2022-09-22T06:37:27.869Z,20.10
2022-09-22T06:38:00.786Z,20.11
2022-09-22T06:38:32.755Z,20.12
2022-09-22T06:39:04.174Z,20.13
2022-09-22T06:39:37.434Z,20.13
2022-09-22T06:40:15.242Z,20.14
2022-09-22T06:40:48.789Z,20.15
2022-09-22T06:41:20.359Z,20.16
2022-09-22T06:41:51.883Z,20.16
2022-09-22T06:42:23.694Z,20.16
2022-09-22T06:42:55.816Z,20.18
2022-09-22T06:43:27.294Z,20.18
2022-09-22T06:44:11.054Z,20.19
2022-09-22T06:44:45.733Z,20.20
2022-09-22T06:45:17.123Z,20.21
2022-09-22T06:45:48.638Z,20.22
2022-09-22T06:46:20.181Z,20.24
2022-09-22T06:46:51.624Z,20.24
2022-09-22T06:47:23.020Z,20.25